Terminal Aerodrome Forecast
Issued by NWS

Home | Current Version | Previous Version | Text Only | Print | Product List | Glossary On
Versions: 1 2 3 4 5 6 7 8 9 10 11 12 13 14 15 16 17 18 19 20 21 22
000
FTUS41 KBOX 260523
TAFFMH
TAF
KFMH 260523Z 2606/2706 28008KT 4SM BR OVC010
     FM261000 28010G20KT P6SM FEW003 BKN090
     FM261500 29014G29KT P6SM FEW250
     FM270000 28008KT P6SM SKC
      AMD NOT SKED=

USA.gov is the U.S. government's official web portal to all federal, state and local government web resources and services.